Terminal Aerodrome Forecast
Issued by NWS

Home | Current Version | Previous Version | Text Only | Print | Product List | Glossary On
Versions: 1 2 3 4 5 6 7 8 9 10 11 12 13 14 15 16 17 18
000
FTUS43 KMKX 232320
TAFENW
TAF
KENW 232320Z 2400/2424 17009KT P6SM FEW040 SCT250
     FM240400 17005KT P6SM BKN050
     FM241100 18006KT 5SM TSRA OVC035CB
     FM241500 19008KT 6SM TSRA OVC010CB
     FM241700 21008KT P6SM SHRA VCTS BKN025CB
     FM242000 22009KT P6SM SHRA VCTS BKN035CB=

USA.gov is the U.S. government's official web portal to all federal, state and local government web resources and services.